Time;durP1;ratioP1;P1;durP2;ratioP2;P2;SDS_P1;SDS_P2;PMS_P1;PMS_P2;Temp;Humidity;BMP_temperature;BMP_pressure;BME280_temperature;BME280_humidity;BME280_pressure;Samples;Min_cycle;Max_cycle;Signal;HPM_P1;HPM_P2
2022/07/27 00:02:01;;;;;;;0.97;0.77;;;27.30;66.90;;;;;;5072855;28;20489;-85
2022/07/27 00:04:28;;;;;;;1.60;1.00;;;27.30;67.10;;;;;;5072998;28;20441;-84
2022/07/27 00:06:54;;;;;;;1.00;0.80;;;27.30;67.10;;;;;;5072911;28;20440;-85
2022/07/27 00:09:22;;;;;;;1.20;0.90;;;27.30;67.90;;;;;;5073120;28;20447;-85
2022/07/27 00:11:51;;;;;;;1.20;0.90;;;27.30;67.20;;;;;;5072630;28;20526;-85
2022/07/27 00:14:18;;;;;;;1.00;0.80;;;27.30;67.10;;;;;;5073407;28;20798;-85
2022/07/27 00:16:45;;;;;;;1.00;0.70;;;27.30;67.20;;;;;;5073047;28;20448;-85
2022/07/27 00:19:12;;;;;;;1.17;0.70;;;27.30;67.20;;;;;;5073007;28;20449;-85
2022/07/27 00:21:39;;;;;;;1.10;0.87;;;27.30;67.30;;;;;;5072607;28;20495;-85
2022/07/27 00:24:07;;;;;;;1.00;0.80;;;27.30;67.30;;;;;;5072693;28;20461;-85
2022/07/27 00:26:34;;;;;;;1.10;0.70;;;27.30;67.20;;;;;;5073062;28;20445;-84
2022/07/27 00:29:02;;;;;;;1.63;0.80;;;27.30;67.40;;;;;;5072785;28;20461;-85
2022/07/27 00:31:28;;;;;;;1.10;0.80;;;27.30;67.40;;;;;;5076648;28;20441;-84
2022/07/27 00:33:55;;;;;;;1.00;0.70;;;27.30;67.50;;;;;;5076652;28;20445;-85
2022/07/27 00:36:22;;;;;;;1.00;0.70;;;27.30;67.40;;;;;;5076920;28;20527;-85
2022/07/27 00:38:49;;;;;;;1.00;0.80;;;27.30;67.40;;;;;;5076683;28;20544;-84
2022/07/27 00:41:16;;;;;;;1.20;0.90;;;27.30;67.50;;;;;;5076522;28;20567;-85
2022/07/27 00:43:50;;;;;;;1.13;1.00;;;27.30;67.60;;;;;;5076687;28;20433;-85
2022/07/27 00:46:22;;;;;;;1.10;0.80;;;27.30;67.40;;;;;;5076475;28;20448;-85
2022/07/27 00:48:49;;;;;;;1.40;0.87;;;27.30;67.50;;;;;;5076474;28;20451;-84
2022/07/27 00:51:18;;;;;;;1.20;0.70;;;27.30;67.50;;;;;;5076752;28;20548;-85
2022/07/27 00:53:46;;;;;;;1.10;0.90;;;27.30;68.20;;;;;;5076703;28;21078;-85
2022/07/27 00:56:13;;;;;;;1.10;0.90;;;27.20;67.40;;;;;;5076566;28;20441;-85
2022/07/27 00:58:40;;;;;;;0.90;0.70;;;27.30;67.50;;;;;;5076201;28;20441;-85
2022/07/27 01:01:07;;;;;;;1.40;0.93;;;27.30;67.40;;;;;;5076128;28;20583;-85
2022/07/27 01:03:36;;;;;;;1.00;0.73;;;27.30;67.50;;;;;;5076173;28;20543;-84
2022/07/27 01:06:03;;;;;;;1.00;0.87;;;27.30;67.40;;;;;;5076159;28;20531;-84
2022/07/27 01:08:30;;;;;;;1.73;1.00;;;27.30;67.30;;;;;;5076202;28;20548;-85
2022/07/27 01:10:57;;;;;;;1.23;0.90;;;27.30;67.60;;;;;;5075894;28;20559;-85
2022/07/27 01:13:26;;;;;;;1.10;0.90;;;27.30;67.60;;;;;;5076399;28;20528;-84
2022/07/27 01:15:53;;;;;;;1.00;0.70;;;27.30;67.70;;;;;;5075754;28;20532;-84
2022/07/27 01:18:31;;;;;;;1.30;0.80;;;27.30;67.50;;;;;;5075971;28;20536;-85
2022/07/27 01:21:01;;;;;;;1.00;0.90;;;27.30;67.40;;;;;;5075584;28;20440;-85
2022/07/27 01:23:31;;;;;;;1.17;1.00;;;27.30;67.40;;;;;;5075878;28;20468;-84
2022/07/27 01:25:58;;;;;;;1.30;0.90;;;27.20;67.50;;;;;;5075804;28;20940;-84
2022/07/27 01:28:25;;;;;;;1.00;0.70;;;27.20;67.40;;;;;;5075655;28;20523;-85
2022/07/27 01:30:52;;;;;;;1.20;0.97;;;27.20;67.40;;;;;;5075705;28;20467;-85
2022/07/27 01:33:24;;;;;;;1.50;0.90;;;27.20;67.40;;;;;;5076027;28;20460;-85
2022/07/27 01:35:52;;;;;;;1.00;0.80;;;27.20;67.40;;;;;;5075723;28;20532;-85
2022/07/27 01:38:19;;;;;;;1.00;0.70;;;27.20;67.30;;;;;;5075688;28;20441;-85
2022/07/27 01:40:48;;;;;;;1.10;1.00;;;27.20;67.50;;;;;;5075423;28;20910;-85
2022/07/27 01:43:15;;;;;;;1.00;0.80;;;27.20;67.40;;;;;;5074734;28;20499;-85
2022/07/27 01:45:41;;;;;;;0.90;0.70;;;27.20;67.50;;;;;;5075246;28;20445;-84
2022/07/27 01:48:09;;;;;;;1.00;0.70;;;27.20;67.60;;;;;;5075204;28;20528;-84
2022/07/27 01:50:36;;;;;;;1.23;0.93;;;27.20;67.60;;;;;;5075697;28;20531;-85
2022/07/27 01:53:03;;;;;;;1.03;0.80;;;27.20;67.50;;;;;;5075396;28;21000;-85
2022/07/27 01:55:30;;;;;;;1.30;0.83;;;27.20;67.70;;;;;;5075385;28;20532;-85
2022/07/27 01:57:58;;;;;;;0.90;0.70;;;27.20;67.60;;;;;;5075175;28;20433;-84
2022/07/27 02:00:25;;;;;;;1.00;0.60;;;27.20;67.70;;;;;;5075248;28;20473;-85
2022/07/27 02:02:52;;;;;;;1.10;0.83;;;27.20;67.70;;;;;;5074685;28;20571;-84
2022/07/27 02:05:19;;;;;;;1.03;0.80;;;27.20;68.50;;;;;;5074893;28;20544;-85
2022/07/27 02:07:46;;;;;;;1.00;0.70;;;27.20;67.70;;;;;;5075021;28;20472;-85
2022/07/27 02:10:13;;;;;;;0.90;0.70;;;27.20;68.50;;;;;;5075235;28;20958;-85
2022/07/27 02:12:38;;;;;;;1.00;0.80;;;27.20;67.80;;;;;;5074830;28;20535;-85
2022/07/27 02:15:10;;;;;;;0.97;0.80;;;27.20;67.70;;;;;;5075065;28;20543;-85
2022/07/27 02:17:38;;;;;;;0.93;0.70;;;27.20;67.70;;;;;;5074839;28;20449;-85
2022/07/27 02:20:08;;;;;;;1.00;0.70;;;27.20;67.80;;;;;;5074977;28;20441;-84
2022/07/27 02:22:35;;;;;;;1.20;0.73;;;27.20;67.90;;;;;;5074470;28;20495;-84
2022/07/27 02:25:03;;;;;;;1.10;0.83;;;27.20;67.70;;;;;;5074468;28;20989;-85
2022/07/27 02:27:29;;;;;;;1.33;0.80;;;27.20;68.00;;;;;;5074437;28;20856;-84
2022/07/27 02:29:57;;;;;;;1.10;0.90;;;27.20;67.90;;;;;;5074760;28;20495;-85
2022/07/27 02:32:25;;;;;;;1.10;0.80;;;27.20;68.00;;;;;;5074433;28;20447;-85
2022/07/27 02:34:52;;;;;;;1.20;0.70;;;27.20;67.90;;;;;;5074480;28;20524;-84
2022/07/27 02:37:19;;;;;;;1.00;0.80;;;27.20;67.90;;;;;;5073905;28;20528;-84
2022/07/27 02:39:45;;;;;;;1.10;0.80;;;27.10;67.80;;;;;;5074322;28;20495;-84
2022/07/27 02:42:12;;;;;;;2.20;0.70;;;27.20;67.90;;;;;;5074557;28;20837;-84
2022/07/27 02:44:40;;;;;;;0.90;0.70;;;27.20;68.00;;;;;;5074480;28;20536;-85
2022/07/27 02:47:07;;;;;;;1.10;0.80;;;27.20;68.00;;;;;;5074643;28;20536;-85
2022/07/27 02:49:36;;;;;;;1.00;0.80;;;27.10;68.00;;;;;;5073981;28;20503;-85
2022/07/27 02:52:04;;;;;;;1.00;0.80;;;27.10;67.90;;;;;;5074395;28;20444;-85
2022/07/27 02:54:31;;;;;;;0.90;0.77;;;27.10;68.00;;;;;;5072996;28;20643;-84
2022/07/27 02:56:59;;;;;;;1.00;0.80;;;27.10;67.90;;;;;;5073759;28;20463;-85
2022/07/27 02:59:26;;;;;;;1.37;0.80;;;27.10;67.90;;;;;;5074005;28;20535;-85
2022/07/27 03:01:53;;;;;;;1.47;0.90;;;27.10;68.10;;;;;;5073812;28;20580;-85
2022/07/27 03:04:20;;;;;;;1.10;0.90;;;27.10;67.90;;;;;;5074040;28;20938;-84
2022/07/27 03:06:48;;;;;;;1.00;0.70;;;27.10;68.00;;;;;;5056119;28;21003;-85
2022/07/27 03:09:15;;;;;;;1.77;0.90;;;27.10;68.10;;;;;;5073856;28;20543;-85
2022/07/27 03:11:42;;;;;;;1.00;0.90;;;27.10;68.10;;;;;;5073338;28;20476;-84
2022/07/27 03:14:09;;;;;;;1.00;0.80;;;27.10;68.20;;;;;;5073985;28;20895;-85
2022/07/27 03:16:36;;;;;;;1.00;0.83;;;27.10;68.20;;;;;;5073547;28;20487;-84
2022/07/27 03:19:03;;;;;;;0.90;0.70;;;27.10;68.30;;;;;;5073535;28;20615;-84
2022/07/27 03:21:30;;;;;;;1.23;0.87;;;27.10;68.20;;;;;;5073692;28;20805;-85
2022/07/27 03:23:58;;;;;;;1.00;0.80;;;27.10;68.30;;;;;;5073578;28;20544;-85
2022/07/27 03:26:25;;;;;;;1.30;0.80;;;27.10;68.30;;;;;;5073540;28;20462;-85
2022/07/27 03:28:52;;;;;;;1.00;0.70;;;27.10;68.20;;;;;;5073773;28;20449;-85
2022/07/27 03:31:19;;;;;;;0.90;0.60;;;27.10;68.10;;;;;;5072830;28;20874;-85
2022/07/27 03:33:46;;;;;;;1.10;0.90;;;27.00;68.10;;;;;;5073087;28;20940;-85
2022/07/27 03:36:12;;;;;;;0.90;0.80;;;27.10;68.30;;;;;;5073221;28;20488;-85
2022/07/27 03:38:39;;;;;;;1.00;0.90;;;27.10;68.20;;;;;;5073478;28;20473;-85
2022/07/27 03:41:07;;;;;;;1.00;0.77;;;27.10;68.40;;;;;;5060535;28;20528;-85
2022/07/27 03:43:35;;;;;;;1.37;0.80;;;27.10;68.40;;;;;;5058967;28;20579;-83
2022/07/27 03:46:02;;;;;;;1.00;0.80;;;27.10;68.40;;;;;;5067653;28;20494;-84
2022/07/27 03:48:29;;;;;;;9.60;0.90;;;27.10;68.30;;;;;;5054871;28;20932;-84
2022/07/27 03:50:56;;;;;;;1.00;0.80;;;27.10;68.50;;;;;;5053362;28;20906;-84
2022/07/27 03:53:23;;;;;;;1.00;0.90;;;27.10;68.30;;;;;;5053166;28;20541;-84
2022/07/27 03:55:50;;;;;;;1.00;0.80;;;27.10;68.30;;;;;;5053199;28;20543;-84
2022/07/27 03:58:22;;;;;;;1.20;0.77;;;27.10;68.40;;;;;;5067063;28;20524;-84
2022/07/27 04:00:49;;;;;;;1.10;0.90;;;27.10;68.30;;;;;;5068051;28;20525;-90
2022/07/27 04:03:16;;;;;;;1.00;0.77;;;27.10;68.50;;;;;;5053187;28;20516;-89
2022/07/27 04:05:43;;;;;;;1.10;0.90;;;27.10;68.40;;;;;;5053302;28;20532;-93
2022/07/27 04:08:10;;;;;;;1.03;0.90;;;27.10;68.30;;;;;;5055883;28;20496;-84
2022/07/27 04:10:37;;;;;;;1.50;0.93;;;27.10;68.30;;;;;;5052721;28;20501;-85
2022/07/27 04:13:04;;;;;;;1.00;0.87;;;27.10;68.20;;;;;;5056281;28;20468;-84
2022/07/27 04:15:42;;;;;;;1.73;0.90;;;27.10;68.50;;;;;;5078563;28;20468;-95
2022/07/27 04:18:09;;;;;;;1.30;0.90;;;27.10;69.30;;;;;;5080125;28;20441;-95
2022/07/27 04:20:36;;;;;;;3.03;1.10;;;27.10;69.60;;;;;;5076397;28;20445;-89
2022/07/27 04:23:03;;;;;;;1.97;0.80;;;27.00;69.20;;;;;;5072984;28;20570;-86
2022/07/27 04:25:30;;;;;;;1.63;0.80;;;27.00;69.70;;;;;;5072871;28;20445;-92
2022/07/27 04:27:57;;;;;;;1.20;0.80;;;27.10;70.00;;;;;;5073460;28;20459;-92
2022/07/27 04:30:24;;;;;;;1.50;0.90;;;27.10;69.60;;;;;;5073543;28;20445;-92
2022/07/27 04:32:53;;;;;;;1.20;0.90;;;27.10;70.30;;;;;;5073518;28;20527;-92
2022/07/27 04:35:20;;;;;;;2.03;1.03;;;27.10;70.20;;;;;;5073172;28;20494;-92
2022/07/27 04:37:47;;;;;;;1.00;0.90;;;27.10;70.20;;;;;;5073364;28;20478;-90
2022/07/27 04:40:14;;;;;;;1.10;0.77;;;27.10;70.10;;;;;;5073592;28;20972;-92
2022/07/27 04:42:41;;;;;;;1.30;0.90;;;27.10;70.20;;;;;;5073162;28;20508;-89
2022/07/27 04:45:08;;;;;;;4.30;1.03;;;27.10;70.00;;;;;;5074827;28;20556;-89
2022/07/27 04:47:35;;;;;;;3.43;0.80;;;27.10;70.20;;;;;;5074697;28;20472;-96
2022/07/27 04:50:04;;;;;;;1.30;0.80;;;27.10;70.00;;;;;;5075837;28;20448;-96
2022/07/27 04:52:31;;;;;;;3.47;0.90;;;27.10;70.60;;;;;;5076024;28;20470;-96
2022/07/27 04:54:58;;;;;;;1.10;0.70;;;27.10;70.50;;;;;;5077303;28;20453;-96
2022/07/27 04:57:25;;;;;;;2.07;0.83;;;27.10;70.40;;;;;;5077162;28;20947;-96
2022/07/27 04:59:58;;;;;;;1.10;0.80;;;27.10;70.40;;;;;;5080783;28;20441;-95
2022/07/27 05:02:27;;;;;;;2.33;1.00;;;27.10;70.40;;;;;;5080476;28;20504;-93
2022/07/27 05:04:54;;;;;;;1.23;0.90;;;27.10;69.70;;;;;;5073950;28;20505;-94
2022/07/27 05:07:22;;;;;;;6.40;1.00;;;27.10;70.00;;;;;;5073762;28;20441;-93
2022/07/27 05:09:49;;;;;;;1.00;0.77;;;27.00;71.00;;;;;;5073558;28;20447;-92
2022/07/27 05:12:16;;;;;;;1.00;0.80;;;27.10;70.60;;;;;;5073227;28;20582;-93
2022/07/27 05:14:43;;;;;;;2.37;0.80;;;27.10;70.50;;;;;;5072902;28;20480;-91
2022/07/27 05:17:10;;;;;;;1.00;0.80;;;27.10;70.50;;;;;;5074747;28;20837;-92
2022/07/27 05:19:37;;;;;;;2.83;1.00;;;27.10;70.60;;;;;;5077452;28;20822;-93
2022/07/27 05:22:04;;;;;;;1.00;0.70;;;27.00;70.50;;;;;;5076842;28;20448;-93
2022/07/27 05:27:54;;;;;;;1.10;0.73;;;27.10;70.50;;;;;;5076528;28;20401;-93
2022/07/27 05:30:22;;;;;;;1.50;0.90;;;27.00;70.70;;;;;;5076655;28;20531;-92
2022/07/27 05:32:48;;;;;;;1.83;1.00;;;27.00;70.60;;;;;;5076405;28;20468;-92
2022/07/27 05:35:15;;;;;;;1.33;0.93;;;27.00;70.60;;;;;;5076370;28;20880;-92
2022/07/27 05:37:42;;;;;;;2.20;0.87;;;27.10;70.60;;;;;;5076218;28;20445;-91
2022/07/27 05:40:11;;;;;;;1.13;0.73;;;27.10;70.70;;;;;;5076470;28;20437;-91
2022/07/27 05:42:40;;;;;;;1.13;0.90;;;27.10;70.60;;;;;;5076065;28;20833;-92
2022/07/27 05:45:10;;;;;;;1.57;1.20;;;27.10;70.60;;;;;;5076208;28;20437;-92
2022/07/27 05:47:38;;;;;;;1.10;0.80;;;27.10;70.50;;;;;;5076950;28;20465;-84
2022/07/27 05:50:06;;;;;;;2.80;0.90;;;27.10;70.50;;;;;;5075558;28;20805;-84
2022/07/27 05:52:33;;;;;;;1.73;1.10;;;27.10;70.50;;;;;;5075335;28;20475;-84
2022/07/27 05:55:00;;;;;;;1.00;0.80;;;27.10;69.40;;;;;;5075053;28;20447;-83
2022/07/27 05:57:27;;;;;;;1.37;0.90;;;27.10;69.00;;;;;;5074872;28;20436;-83
2022/07/27 05:59:55;;;;;;;1.70;1.00;;;27.00;68.70;;;;;;5075133;28;20532;-83
2022/07/27 06:02:23;;;;;;;1.00;0.70;;;27.00;68.70;;;;;;5075586;28;20448;-84
2022/07/27 06:04:50;;;;;;;1.10;0.87;;;27.00;68.70;;;;;;5075235;28;20436;-83
2022/07/27 06:10:01;;;;;;;1.20;0.87;;;27.00;68.80;;;;;;5075331;28;20893;-85
2022/07/27 06:12:28;;;;;;;0.93;0.77;;;27.00;68.80;;;;;;5074946;28;20511;-85
2022/07/27 06:14:55;;;;;;;3.40;1.30;;;27.00;68.70;;;;;;5074182;28;20437;-83
2022/07/27 06:17:24;;;;;;;4.33;1.33;;;27.00;67.70;;;;;;5074092;28;20456;-87
2022/07/27 06:19:50;;;;;;;4.87;1.00;;;27.00;65.50;;;;;;5075331;28;20503;-87
2022/07/27 06:22:18;;;;;;;2.23;1.20;;;27.00;66.40;;;;;;5075752;28;20464;-91
2022/07/27 06:24:45;;;;;;;4.00;1.47;;;26.80;66.60;;;;;;5074730;28;20512;-87
2022/07/27 13:54:21;;;;;;;1.40;1.20;;;26.80;65.60;;;;;;5033953;28;20459;-83
2022/07/27 13:56:48;;;;;;;1.30;0.97;;;26.80;66.10;;;;;;5034560;28;21067;-83
2022/07/27 13:59:15;;;;;;;1.30;1.10;;;26.90;67.60;;;;;;5034996;28;21015;-86
2022/07/27 14:01:41;;;;;;;3.20;1.00;;;26.90;67.10;;;;;;5051902;28;20437;-95
2022/07/27 14:04:10;;;;;;;6.23;1.30;;;26.90;66.80;;;;;;5038812;28;20484;-88
2022/07/27 14:06:37;;;;;;;2.73;1.43;;;26.90;65.90;;;;;;5054739;28;20815;-83
2022/07/27 14:09:06;;;;;;;4.03;1.30;;;26.90;66.20;;;;;;5054357;28;20532;-83
2022/07/27 14:11:34;;;;;;;1.33;1.10;;;26.90;66.60;;;;;;5054028;28;20470;-83
2022/07/27 14:14:02;;;;;;;2.20;1.23;;;26.90;67.30;;;;;;5053578;28;20450;-83
2022/07/27 14:16:28;;;;;;;2.13;1.60;;;26.90;67.70;;;;;;5051125;28;20879;-86
2022/07/27 14:18:55;;;;;;;1.87;1.23;;;27.00;67.40;;;;;;5034419;28;20453;-82
2022/07/27 14:21:23;;;;;;;2.30;1.57;;;26.90;67.80;;;;;;5042635;28;20461;-87
2022/07/27 14:23:49;;;;;;;10.40;6.43;;;26.90;68.00;;;;;;5037999;28;20478;-90
2022/07/27 14:26:16;;;;;;;16.17;8.17;;;26.90;67.20;;;;;;5055743;28;20456;-89
2022/07/27 14:28:45;;;;;;;7.30;6.60;;;27.00;65.70;;;;;;5055747;28;20960;-90
2022/07/27 14:31:12;;;;;;;9.20;5.83;;;27.00;65.00;;;;;;5038198;28;20446;-90
2022/07/27 14:33:39;;;;;;;6.83;4.47;;;27.00;65.20;;;;;;5055614;28;20450;-90
2022/07/27 14:36:08;;;;;;;4.73;4.17;;;27.00;65.20;;;;;;5055834;28;20545;-89
2022/07/27 14:38:35;;;;;;;5.63;4.03;;;27.00;65.20;;;;;;5055076;28;20476;-89
2022/07/27 14:41:02;;;;;;;6.70;5.23;;;27.00;65.40;;;;;;5054967;28;20437;-90
2022/07/27 14:43:30;;;;;;;5.77;4.60;;;27.00;65.40;;;;;;5055360;28;20489;-90
2022/07/27 14:45:59;;;;;;;7.90;5.43;;;27.00;65.20;;;;;;5046204;28;20460;-89
2022/07/27 14:48:26;;;;;;;5.53;5.00;;;27.00;65.30;;;;;;5035404;28;20800;-89
2022/07/27 14:50:53;;;;;;;5.50;4.40;;;27.00;65.50;;;;;;5035183;28;20447;-89
2022/07/27 14:53:20;;;;;;;5.07;4.43;;;27.00;65.60;;;;;;5035053;28;20549;-90
2022/07/27 14:55:47;;;;;;;7.53;5.90;;;27.00;65.50;;;;;;5034466;28;20529;-89
2022/07/27 14:58:14;;;;;;;8.50;5.70;;;27.00;65.60;;;;;;5034497;28;20470;-89
2022/07/27 15:00:40;;;;;;;5.60;4.90;;;27.00;65.60;;;;;;5034508;28;20479;-90
2022/07/27 15:03:09;;;;;;;7.13;5.10;;;27.00;65.50;;;;;;5034190;28;20535;-89
2022/07/27 15:05:36;;;;;;;6.57;5.20;;;27.00;65.60;;;;;;5034638;28;20443;-93
2022/07/27 15:08:04;;;;;;;4.67;4.27;;;27.00;66.10;;;;;;5034817;28;20478;-93
2022/07/27 15:10:31;;;;;;;5.53;4.07;;;27.10;63.80;;;;;;5034846;28;20443;-93
2022/07/27 15:12:58;;;;;;;4.10;3.70;;;27.00;62.90;;;;;;5034953;28;20791;-93
2022/07/27 15:15:25;;;;;;;3.33;3.03;;;27.00;62.90;;;;;;5034727;28;20462;-91
2022/07/27 15:17:53;;;;;;;4.67;3.67;;;27.00;62.50;;;;;;5034708;28;20482;-91
2022/07/27 15:20:21;;;;;;;4.90;3.17;;;27.00;61.20;;;;;;5034658;28;20539;-94
2022/07/27 15:22:48;;;;;;;3.90;3.50;;;27.00;62.10;;;;;;5034030;28;20518;-94
2022/07/27 15:25:15;;;;;;;6.53;3.73;;;27.00;63.50;;;;;;5034479;28;20922;-93
2022/07/27 15:27:42;;;;;;;5.80;4.57;;;27.00;65.20;;;;;;5034329;28;20537;-94
2022/07/27 15:30:10;;;;;;;4.90;4.03;;;27.00;66.00;;;;;;5034663;28;20470;-95
2022/07/27 15:32:36;;;;;;;4.63;4.23;;;27.00;66.30;;;;;;5034494;28;20886;-94
2022/07/27 15:35:04;;;;;;;5.70;4.50;;;27.10;67.40;;;;;;5034515;28;20459;-94
2022/07/27 15:37:32;;;;;;;5.60;4.10;;;27.10;66.80;;;;;;5034275;28;20477;-94
2022/07/27 15:40:35;;;;;;;5.50;4.43;;;27.10;66.90;;;;;;5034110;28;20504;-94
2022/07/27 15:42:46;;;;;;;4.70;4.20;;;27.10;66.90;;;;;;5034034;28;20442;-93
2022/07/27 15:45:13;;;;;;;4.80;4.40;;;27.10;67.00;;;;;;5034360;28;20484;-93
2022/07/27 15:47:40;;;;;;;6.60;3.87;;;27.10;67.10;;;;;;5034178;28;20957;-91
2022/07/27 15:50:08;;;;;;;6.97;4.40;;;27.10;66.10;;;;;;5033431;28;20501;-91
2022/07/27 15:52:36;;;;;;;4.33;3.73;;;27.10;66.50;;;;;;5033524;28;20532;-91
2022/07/27 15:55:04;;;;;;;5.77;4.07;;;27.10;66.50;;;;;;5033824;28;20537;-91
2022/07/27 15:57:30;;;;;;;4.47;3.83;;;27.10;66.40;;;;;;5033852;28;20521;-90
2022/07/27 15:59:57;;;;;;;5.07;3.70;;;27.10;66.40;;;;;;5033451;28;20477;-91
2022/07/27 16:02:26;;;;;;;3.97;3.57;;;27.10;66.40;;;;;;5033682;28;20478;-91
2022/07/27 16:04:54;;;;;;;3.90;3.50;;;27.00;66.20;;;;;;5033504;28;20517;-90
2022/07/27 16:07:21;;;;;;;4.97;4.17;;;27.00;66.20;;;;;;5032294;28;20470;-91
2022/07/27 16:09:49;;;;;;;6.50;4.07;;;27.00;66.20;;;;;;5032335;28;20525;-88
2022/07/27 16:12:18;;;;;;;3.87;3.47;;;27.00;66.20;;;;;;5032868;28;20443;-90
2022/07/27 16:14:45;;;;;;;5.87;4.20;;;27.00;66.10;;;;;;5033219;28;20454;-91
2022/07/27 16:17:12;;;;;;;4.00;2.70;;;27.00;66.10;;;;;;5033437;28;20478;-91
2022/07/27 16:19:39;;;;;;;3.97;2.90;;;27.00;66.10;;;;;;5033484;28;20541;-90
2022/07/27 16:22:06;;;;;;;5.50;3.47;;;27.00;66.10;;;;;;5033396;28;20553;-90
2022/07/27 16:24:33;;;;;;;3.83;3.53;;;27.00;66.10;;;;;;5033414;28;20485;-91
2022/07/27 16:27:01;;;;;;;4.47;3.20;;;27.00;65.90;;;;;;5033303;28;20878;-92
2022/07/27 16:29:28;;;;;;;4.00;3.30;;;27.00;66.00;;;;;;5033151;28;20533;-90
2022/07/27 16:31:57;;;;;;;3.33;2.70;;;27.00;66.00;;;;;;5033083;28;20442;-91
2022/07/27 16:34:25;;;;;;;6.10;2.70;;;27.00;66.00;;;;;;5033438;28;20441;-91
2022/07/27 16:36:52;;;;;;;3.77;3.47;;;27.00;65.90;;;;;;5033120;28;20446;-91
2022/07/27 16:39:18;;;;;;;2.97;2.53;;;27.00;65.70;;;;;;5033222;28;20870;-91
2022/07/27 16:41:46;;;;;;;2.97;2.67;;;27.00;66.10;;;;;;5033356;28;20520;-93
2022/07/27 16:44:14;;;;;;;6.20;3.07;;;27.00;65.90;;;;;;5033670;28;20509;-94
2022/07/27 16:46:42;;;;;;;3.33;3.03;;;27.00;66.10;;;;;;5033638;28;20446;-95
2022/07/27 16:49:09;;;;;;;6.50;2.87;;;27.00;66.10;;;;;;5034071;28;20799;-95
2022/07/27 16:51:36;;;;;;;3.40;2.70;;;27.00;65.90;;;;;;5034093;28;20562;-91
2022/07/27 16:54:04;;;;;;;6.30;2.67;;;27.00;65.90;;;;;;5033679;28;20482;-96
2022/07/27 16:56:31;;;;;;;3.07;2.80;;;27.00;65.80;;;;;;5033889;28;20533;-95
2022/07/27 16:58:58;;;;;;;2.73;2.27;;;27.00;65.70;;;;;;5034156;28;20438;-96
2022/07/27 17:01:27;;;;;;;4.47;3.17;;;27.00;65.50;;;;;;5034423;28;20438;-95
2022/07/27 17:03:55;;;;;;;3.50;2.70;;;27.00;65.40;;;;;;5033773;28;20537;-96
2022/07/27 17:06:22;;;;;;;2.60;2.40;;;27.00;65.60;;;;;;5034081;28;20508;-95
2022/07/27 17:08:49;;;;;;;3.60;2.50;;;27.00;66.10;;;;;;5035555;28;20442;-96
2022/07/27 17:11:18;;;;;;;3.37;3.07;;;27.10;66.50;;;;;;5054933;28;20480;-95
2022/07/27 17:13:45;;;;;;;2.90;2.60;;;27.10;66.70;;;;;;5058796;28;20441;-95
2022/07/27 17:16:12;;;;;;;2.17;1.97;;;27.00;66.50;;;;;;5040666;28;20443;-96
2022/07/27 17:18:41;;;;;;;3.83;2.30;;;27.00;66.20;;;;;;5039010;28;20434;-94
2022/07/27 17:21:11;;;;;;;2.73;2.20;;;27.00;66.00;;;;;;5039523;28;20498;-93
2022/07/27 17:23:38;;;;;;;2.50;2.30;;;27.00;65.90;;;;;;5039124;28;20512;-93
2022/07/27 17:26:06;;;;;;;2.30;2.10;;;27.00;65.80;;;;;;5039028;28;20556;-95
2022/07/27 17:28:35;;;;;;;3.27;2.47;;;27.00;65.70;;;;;;5040135;28;20501;-95
2022/07/27 17:31:03;;;;;;;2.33;2.13;;;27.00;66.10;;;;;;5041415;28;20454;-95
2022/07/27 17:33:30;;;;;;;2.03;1.70;;;27.00;65.80;;;;;;5036930;28;20546;-90
2022/07/27 17:35:59;;;;;;;2.07;1.87;;;27.00;64.90;;;;;;5036514;28;20475;-90
2022/07/27 17:38:26;;;;;;;2.27;2.07;;;27.00;65.20;;;;;;5036791;28;20447;-90
2022/07/27 17:40:53;;;;;;;3.20;2.20;;;27.00;63.60;;;;;;5036789;28;20505;-90
2022/07/27 17:43:20;;;;;;;3.60;1.77;;;27.00;64.20;;;;;;5036054;28;20446;-91
2022/07/27 17:45:47;;;;;;;3.07;2.23;;;27.00;64.60;;;;;;5036153;28;21047;-91
2022/07/27 17:48:14;;;;;;;1.70;1.60;;;27.00;64.90;;;;;;5036166;28;20454;-91
2022/07/27 17:50:41;;;;;;;2.80;1.77;;;27.00;64.70;;;;;;5036073;28;21032;-91
2022/07/27 17:53:09;;;;;;;3.00;2.03;;;27.00;64.70;;;;;;5035857;28;20479;-90
2022/07/27 17:55:36;;;;;;;3.70;2.00;;;27.00;65.10;;;;;;5035773;28;20485;-91
2022/07/27 17:58:03;;;;;;;2.57;1.90;;;27.00;64.70;;;;;;5035640;28;20535;-91
2022/07/27 18:00:30;;;;;;;2.07;1.77;;;27.00;65.20;;;;;;5035755;28;20457;-88
2022/07/27 18:02:57;;;;;;;2.50;1.70;;;27.00;65.50;;;;;;5035207;28;20512;-87
2022/07/27 18:05:25;;;;;;;2.33;2.13;;;27.00;65.30;;;;;;5035331;28;21192;-88
2022/07/27 18:07:52;;;;;;;1.90;1.70;;;27.00;65.40;;;;;;5035483;28;20884;-87
2022/07/27 18:10:21;;;;;;;2.37;2.17;;;27.00;65.30;;;;;;5035269;28;20443;-87
2022/07/27 18:12:47;;;;;;;2.03;1.77;;;27.00;65.20;;;;;;5035074;28;20482;-87
2022/07/27 18:17:59;;;;;;;1.53;1.43;;;27.00;65.00;;;;;;5035124;28;20433;-87
2022/07/27 18:20:26;;;;;;;1.73;1.60;;;27.00;65.00;;;;;;5035037;28;20463;-87
2022/07/27 18:22:53;;;;;;;2.80;1.57;;;27.00;64.80;;;;;;5035052;28;20437;-87
2022/07/27 18:25:21;;;;;;;1.50;1.33;;;26.90;64.80;;;;;;5034665;28;20577;-87
2022/07/27 18:27:48;;;;;;;2.17;1.60;;;26.90;64.90;;;;;;5035984;28;20434;-87
2022/07/27 18:30:16;;;;;;;3.30;1.40;;;26.90;64.70;;;;;;5035223;28;20848;-88
2022/07/27 18:32:44;;;;;;;2.03;1.60;;;26.90;64.70;;;;;;5050480;28;20446;-87
2022/07/27 18:35:11;;;;;;;7.00;1.80;;;26.90;64.60;;;;;;5054369;28;20449;-87
2022/07/27 18:37:38;;;;;;;2.63;1.80;;;26.90;64.50;;;;;;5054457;28;20442;-88
2022/07/27 18:40:07;;;;;;;4.00;1.60;;;26.90;64.50;;;;;;5054375;28;20544;-88
2022/07/27 18:42:36;;;;;;;6.47;2.30;;;26.90;64.40;;;;;;5054509;28;20450;-87
2022/07/27 18:45:03;;;;;;;2.97;1.57;;;26.90;64.50;;;;;;5054452;28;20994;-86
2022/07/27 18:47:30;;;;;;;3.23;1.97;;;26.90;64.50;;;;;;5054251;28;20472;-88
2022/07/27 18:49:57;;;;;;;2.17;1.60;;;26.90;64.40;;;;;;5054267;28;20446;-87
2022/07/27 18:52:24;;;;;;;1.90;1.80;;;26.90;64.30;;;;;;5053251;28;20517;-87
2022/07/27 18:54:50;;;;;;;1.87;1.40;;;26.90;64.20;;;;;;5054581;28;20484;-87
2022/07/27 18:57:19;;;;;;;1.80;1.50;;;26.90;64.10;;;;;;5054696;28;20956;-87
2022/07/27 18:59:47;;;;;;;2.53;1.60;;;26.90;64.20;;;;;;5054853;28;20469;-93
2022/07/27 19:02:18;;;;;;;3.50;1.93;;;26.90;64.40;;;;;;5057587;28;20450;-96
2022/07/27 19:08:10;;;;;;;3.63;1.87;;;26.90;65.30;;;;;;5060728;28;20451;-94
2022/07/27 19:10:42;;;;;;;1.53;1.43;;;26.80;65.50;;;;;;5069796;28;20425;-95
2022/07/27 19:13:09;;;;;;;2.30;1.70;;;26.90;65.10;;;;;;5087917;22;20511;-96
2022/07/27 19:15:38;;;;;;;2.17;1.97;;;26.90;64.90;;;;;;5074301;28;20536;-91
2022/07/27 19:18:06;;;;;;;7.70;1.60;;;26.90;64.80;;;;;;5074187;28;20459;-92
2022/07/27 19:20:35;;;;;;;3.30;1.50;;;26.90;64.90;;;;;;5073956;28;20518;-89
2022/07/27 19:23:01;;;;;;;7.73;1.60;;;26.90;62.50;;;;;;5073669;28;20536;-86
2022/07/27 19:25:29;;;;;;;5.77;1.40;;;26.90;62.40;;;;;;5074033;28;20525;-93
2022/07/27 19:27:56;;;;;;;4.03;1.90;;;26.90;63.30;;;;;;5074045;28;20440;-86
2022/07/27 19:30:23;;;;;;;5.13;1.77;;;26.90;63.60;;;;;;5073672;28;20483;-85
2022/07/27 19:32:51;;;;;;;8.20;1.50;;;26.90;63.80;;;;;;5073968;28;20809;-85
2022/07/27 19:35:18;;;;;;;3.20;1.37;;;26.90;64.30;;;;;;5073110;28;20473;-87
2022/07/27 19:37:45;;;;;;;3.40;1.40;;;26.90;64.30;;;;;;5073474;28;20444;-87
2022/07/27 19:40:12;;;;;;;1.40;1.30;;;26.90;64.30;;;;;;5073951;28;20899;-86
2022/07/27 19:42:40;;;;;;;2.57;1.90;;;26.90;64.50;;;;;;5073839;28;20469;-86
2022/07/27 19:45:08;;;;;;;1.67;1.47;;;26.90;64.80;;;;;;5073702;28;20560;-86
2022/07/27 19:47:35;;;;;;;2.80;1.60;;;26.90;64.90;;;;;;5073758;28;20447;-86
2022/07/27 19:50:04;;;;;;;3.20;1.57;;;26.90;64.80;;;;;;5072790;28;20443;-87
2022/07/27 19:52:31;;;;;;;1.60;1.47;;;27.00;65.10;;;;;;5073014;28;20965;-88
2022/07/27 19:54:58;;;;;;;1.97;1.50;;;26.90;65.00;;;;;;5076509;28;20447;-94
2022/07/27 19:57:26;;;;;;;2.80;1.70;;;27.00;65.10;;;;;;5081340;28;20475;-91
2022/07/27 19:59:54;;;;;;;6.57;1.23;;;26.90;64.70;;;;;;5073829;28;20445;-88
2022/07/27 20:02:20;;;;;;;2.20;1.80;;;26.90;64.80;;;;;;5073799;28;20441;-86
2022/07/27 20:04:47;;;;;;;4.70;1.90;;;27.00;65.20;;;;;;5073333;28;20436;-86
2022/07/27 20:07:16;;;;;;;1.60;1.30;;;27.00;66.20;;;;;;5073639;28;20476;-89
2022/07/27 20:09:43;;;;;;;2.53;1.40;;;27.00;65.20;;;;;;5073419;28;20962;-88
2022/07/27 20:12:09;;;;;;;1.57;1.10;;;27.00;65.00;;;;;;5073542;28;20571;-88
2022/07/27 20:14:37;;;;;;;2.70;1.10;;;27.00;65.00;;;;;;5073323;28;20441;-87
2022/07/27 20:17:05;;;;;;;1.90;1.10;;;27.00;64.90;;;;;;5073343;28;20445;-89
2022/07/27 20:19:32;;;;;;;1.50;1.20;;;27.00;64.80;;;;;;5073588;28;20464;-89
2022/07/27 20:21:59;;;;;;;1.43;1.10;;;27.00;64.70;;;;;;5073218;28;20488;-88
2022/07/27 20:24:28;;;;;;;2.90;1.30;;;27.00;64.80;;;;;;5073279;28;20448;-93
2022/07/27 20:26:55;;;;;;;1.60;1.50;;;27.00;64.80;;;;;;5073464;28;20494;-88
2022/07/27 20:29:22;;;;;;;2.17;1.67;;;27.00;65.10;;;;;;5073118;28;20490;-87